Aeroporto :
LOGIN :

Iscrizione | Disclaimer

   EN    FR    IT 

 










Sommario :    VFR   VFR Marginale   IFR   IFR Intensivo   IFR Molto Intensivo
Visibilità : 
Base nubi : 
>= 8 km
>= 3000ft
5 / 8 km
1000 / 3000 ft
1500m / 5 km
500 / 1000 ft
800 / 1500m
200 / 500 ft
< 800m
< 200 ft
Simboli :   Temporali  Nebbia  Neve Forte  Precipitazioni Forti  Vento > 20 kt
SIGMETs :   Varie  Temporali  Ghiacco  Turbolenza  Onda orograficha  Ceneri Vulcaniche






- Altitudine del aeroporto : 788 ft
- Codice IATA : DCM


LFCK - Castres-Mazamet

ULTIMO METAR :
  • 211530Z AUTO 31004KT 9999 OVC033 10/08 Q1032 NOSIG

METARs OBSOLETI :
  • 211500Z AUTO 31003KT 9999 FEW012 OVC032 10/08 Q1032 NOSIG
  • 211430Z AUTO 26002KT 9999 BKN017 BKN026 OVC035 10/08 Q1032 NOSIG
  • 211400Z AUTO 27003KT 9999 FEW009 BKN014 BKN021 09/09 Q1032 BECMG SCT013
  • 211330Z AUTO 27004KT 9999 BKN007 OVC014 09/08 Q1032 BECMG SCT013
  • 211300Z AUTO 26004KT 9999 OVC005 09/08 Q1032 TEMPO 2000 -DZ BECMG SCT013

TAF TAF LFCK
Valido dal 21 a 15 ore il 22 a 00 ore UTC


211400Z 2115/2124 28005KT 9999 BKN030
BECMG 2119/2121 VRB02KT CAVOK



MetMap, La meteo Aeronautica in un colpo d'occhio ! - Copyright ORBIFLY Dicembre 2007 - Disclaimer

ORBIFLY MET'MAP TEAM :

Programmazione e sviluppo : Alexandra Zaïnal
Concezione : Baudouin d'Aumeries
Aiuto per la programmazione : Marc-Olivier Méhu
Supporto tecnico e logistico : Manuel Goepfert
Aiuto per la traduzione : Arnaldo La Scala

Contatto : metmap@orbifly.com




FONTI E CREDITI :

   NOAA